This is the latest recevied weather packets stored in our database for station/object YN8O-13. If no packets are shown the sender has not sent any weather packets the latest 10 day(s).
| Time | Temp. | Humidity | Pressure | Rain* | Wind** | Luminosity | Snow |
|---|---|---|---|---|---|---|---|
| 1778084635 | 29.44° C | 40% | 1014 hPa | 0 mm | - | - | - |
| 1778084035 | 28.89° C | 39% | 1014 hPa | 0 mm | - | - | - |
| 1778083435 | 28.89° C | 39% | 1014 hPa | 0 mm | - | - | - |
| 1778082834 | 28.89° C | 37% | 1014 hPa | 0 mm | - | - | - |
| 1778082234 | 28.33° C | 40% | 1014 hPa | 0 mm | - | - | - |
| 1778081633 | 28.33° C | 40% | 1014 hPa | 0 mm | - | - | - |
| 1778081033 | 27.78° C | 47% | 1014 hPa | 0 mm | - | - | - |
| 1778080433 | 27.22° C | 47% | 1014 hPa | 0 mm | - | - | - |
| 1778079832 | 27.22° C | 47% | 1014 hPa | 0 mm | - | - | - |
| 1778079232 | 27.22° C | 46% | 1014 hPa | 0 mm | - | - | - |
| 1778078632 | 27.22° C | 49% | 1014 hPa | 0 mm | - | - | - |
| 1778078031 | 25.56° C | 56% | 1014 hPa | 0 mm | - | - | - |
| 1778077431 | 25.56° C | 56% | 1014 hPa | 0 mm | - | - | - |
| 1778076830 | 25.56° C | 56% | 1014 hPa | 0 mm | - | - | - |
| 1778076230 | 25.56° C | 56% | 1014 hPa | 0 mm | - | - | - |
| 1778075630 | 25.56° C | 56% | 1014 hPa | 0 mm | - | - | - |
| 1778075029 | 25° C | 58% | 1014 hPa | 0 mm | - | - | - |
| 1778074429 | 23.89° C | 63% | 1014 hPa | 0 mm | - | - | - |
| 1778073828 | 23.89° C | 63% | 1014 hPa | 0 mm | - | - | - |
| 1778073228 | 23.89° C | 63% | 1014 hPa | 0 mm | - | - | - |
| 1778072628 | 23.89° C | 63% | 1014 hPa | 0 mm | - | - | - |
| 1778071427 | 23.89° C | 63% | 1014 hPa | 0 mm | - | - | - |
| 1778070827 | 22.78° C | 62% | 1014 hPa | 0 mm | - | - | - |
| 1778070226 | 22.78° C | 62% | 1014 hPa | 0 mm | - | - | - |
| 1778069626 | 22.78° C | 62% | 1014 hPa | 0 mm | - | - | - |
* Rain latest hour (hover to see other rain measurements)
** Current wind speed in m/s (hover to see current wind gust speed)